Time;durP1;ratioP1;P1;durP2;ratioP2;P2;SDS_P1;SDS_P2;PMS_P1;PMS_P2;Temp;Humidity;BMP_temperature;BMP_pressure;BME280_temperature;BME280_humidity;BME280_pressure;Samples;Min_cycle;Max_cycle;Signal;HPM_P1;HPM_P2
2023/10/13 00:02:02;;;;;;;;;;;;;;;7.55;77.40;101106.54;108871;1258;60439;-78
2023/10/13 00:04:28;;;;;;;;;;;;;;;7.52;77.44;101105.38;108901;1258;60160;-78
2023/10/13 00:06:59;;;;;;;;;;;;;;;7.51;77.46;101110.74;108670;1260;124943;-77
2023/10/13 00:09:32;;;;;;;;;;;;;;;7.49;77.48;101120.77;105805;1262;66039;-78
2023/10/13 00:11:59;;;;;;;;;;;;;;;7.47;77.58;101128.17;105583;1260;126478;-78
2023/10/13 00:14:34;;;;;;;;;;;;;;;7.44;77.57;101124.55;105867;1262;62107;-78
2023/10/13 00:17:04;;;;;;;;;;;;;;;7.41;77.73;101124.79;105757;1259;63349;-77
2023/10/13 00:19:37;;;;;;;;;;;;;;;7.39;77.88;101118.06;105665;1259;125015;-77
2023/10/13 00:22:11;;;;;;;;;;;;;;;7.38;77.93;101120.81;108945;1260;64802;-77
2023/10/13 00:24:48;;;;;;;;;;;;;;;7.36;77.98;101119.16;108749;1260;126140;-77
2023/10/13 00:27:29;;;;;;;;;;;;;;;7.34;77.99;101115.25;108888;1259;60054;-77
2023/10/13 00:30:17;;;;;;;;;;;;;;;7.34;78.10;101117.52;108551;1258;126470;-77
2023/10/13 00:32:55;;;;;;;;;;;;;;;7.33;78.19;101119.74;105759;1259;75802;-77
2023/10/13 00:35:26;;;;;;;;;;;;;;;7.32;78.30;101121.63;105788;1260;66056;-77
2023/10/13 00:37:55;;;;;;;;;;;;;;;7.31;78.26;101123.67;105659;1260;126208;-77
2023/10/13 00:40:42;;;;;;;;;;;;;;;7.30;78.36;101122.02;105739;1261;62105;-77
2023/10/13 00:46:33;;;;;;;;;;;;;;;7.27;78.47;101119.98;105855;1258;75498;-77
2023/10/13 00:48:45;;;;;;;;;;;;;;;7.25;78.48;101115.52;105696;1264;125466;-77
2023/10/13 00:51:18;;;;;;;;;;;;;;;7.22;78.56;101105.98;105787;1260;72971;-77
2023/10/13 00:53:47;;;;;;;;;;;;;;;7.19;78.70;101106.05;105760;1262;125186;-76
2023/10/13 00:56:27;;;;;;;;;;;;;;;7.17;78.74;101102.27;105785;1258;62156;-75
2023/10/13 00:58:55;;;;;;;;;;;;;;;7.16;78.82;101105.02;105888;1260;73941;-75
2023/10/13 01:01:22;;;;;;;;;;;;;;;7.15;79.11;101111.61;105677;1258;125124;-75
2023/10/13 01:03:49;;;;;;;;;;;;;;;7.14;79.13;101119.08;105951;1259;72860;-76
2023/10/13 01:06:20;;;;;;;;;;;;;;;7.12;79.12;101124.40;105600;1259;125316;-77
2023/10/13 01:08:50;;;;;;;;;;;;;;;7.10;79.05;101127.43;105678;1265;62159;-76
2023/10/13 01:11:18;;;;;;;;;;;;;;;7.07;79.09;101131.48;105687;1263;75493;-77
2023/10/13 01:13:47;;;;;;;;;;;;;;;7.06;79.21;101123.23;105505;1260;125721;-76
2023/10/13 01:16:13;;;;;;;;;;;;;;;7.05;79.36;101121.27;105897;1261;72506;-77
2023/10/13 01:18:47;;;;;;;;;;;;;;;7.05;79.39;101120.42;105727;1261;125053;-77
2023/10/13 01:21:16;;;;;;;;;;;;;;;7.06;79.56;101114.66;105765;1260;62171;-76
2023/10/13 01:23:47;;;;;;;;;;;;;;;7.06;79.69;101116.79;106785;1259;125296;-77
2023/10/13 01:26:21;;;;;;;;;;;;;;;7.06;79.62;101121.67;108879;1259;66104;-76
2023/10/13 01:28:50;;;;;;;;;;;;;;;7.04;79.50;101128.56;108908;1258;72751;-76
2023/10/13 01:31:37;;;;;;;;;;;;;;;7.02;79.53;101128.30;108830;1260;125582;-78
2023/10/13 01:34:03;;;;;;;;;;;;;;;7.02;79.50;101131.43;107474;1260;60581;-76
2023/10/13 01:36:35;;;;;;;;;;;;;;;7.01;79.49;101129.80;105878;1258;126082;-75
2023/10/13 01:39:02;;;;;;;;;;;;;;;6.99;79.53;101136.90;105756;1260;65078;-75
2023/10/13 01:41:30;;;;;;;;;;;;;;;6.97;79.44;101140.29;105811;1262;72553;-75
2023/10/13 01:43:57;;;;;;;;;;;;;;;6.93;79.37;101136.45;105750;1260;62331;-77
2023/10/13 01:46:24;;;;;;;;;;;;;;;6.89;79.33;101138.72;105738;1259;60178;-77
2023/10/13 01:48:54;;;;;;;;;;;;;;;6.86;79.41;101140.52;105736;1262;125647;-75
2023/10/13 01:51:23;;;;;;;;;;;;;;;6.84;79.47;101145.27;105749;1261;65999;-76
2023/10/13 01:53:56;;;;;;;;;;;;;;;6.80;79.59;101146.17;105684;1257;125759;-76
2023/10/13 01:56:29;;;;;;;;;;;;;;;6.79;79.62;101150.11;105872;1260;62165;-75
2023/10/13 01:58:55;;;;;;;;;;;;;;;6.77;79.63;101151.05;108835;1260;59945;-76
2023/10/13 02:01:29;;;;;;;;;;;;;;;6.74;79.65;101151.98;107212;1259;124925;-76
2023/10/13 02:04:03;;;;;;;;;;;;;;;6.73;79.70;101154.70;108905;1260;66063;-76
2023/10/13 02:06:33;;;;;;;;;;;;;;;6.71;79.78;101148.86;108800;1259;124929;-76
2023/10/13 02:09:05;;;;;;;;;;;;;;;6.71;79.84;101153.39;108813;1257;59743;-76
2023/10/13 02:11:32;;;;;;;;;;;;;;;6.71;79.95;101153.40;108872;1258;59917;-76
2023/10/13 02:14:00;;;;;;;;;;;;;;;6.71;79.93;101154.98;106803;1262;74063;-76
2023/10/13 02:16:27;;;;;;;;;;;;;;;6.70;79.86;101157.38;105745;1258;66334;-75
2023/10/13 02:18:53;;;;;;;;;;;;;;;6.69;79.94;101158.86;105601;1262;125058;-77
2023/10/13 02:21:20;;;;;;;;;;;;;;;6.68;80.01;101162.15;105813;1260;62153;-78
2023/10/13 02:23:59;;;;;;;;;;;;;;;6.67;80.07;101165.23;105595;1260;125285;-78
2023/10/13 02:26:38;;;;;;;;;;;;;;;6.65;80.08;101167.42;105789;1262;75548;-78
2023/10/13 02:29:08;;;;;;;;;;;;;;;6.63;80.15;101162.93;105724;1263;66882;-77
2023/10/13 02:31:35;;;;;;;;;;;;;;;6.60;80.16;101163.20;105546;1260;125117;-76
2023/10/13 02:34:07;;;;;;;;;;;;;;;6.59;80.09;101161.20;105781;1264;61997;-77
2023/10/13 02:36:46;;;;;;;;;;;;;;;6.55;80.11;101166.95;107066;1259;125207;-77
2023/10/13 02:39:13;;;;;;;;;;;;;;;6.53;80.17;101166.51;105861;1259;73246;-75
2023/10/13 02:41:41;;;;;;;;;;;;;;;6.49;80.12;101158.30;105803;1260;125136;-77
2023/10/13 02:44:19;;;;;;;;;;;;;;;6.47;80.20;101158.72;105857;1260;72697;-75
2023/10/13 02:46:50;;;;;;;;;;;;;;;6.44;80.19;101163.98;105777;1260;62065;-77
2023/10/13 02:49:19;;;;;;;;;;;;;;;6.41;80.22;101171.87;105784;1259;124913;-76
2023/10/13 02:51:45;;;;;;;;;;;;;;;6.38;80.31;101169.80;105772;1260;74267;-76
2023/10/13 02:54:18;;;;;;;;;;;;;;;6.36;80.20;101177.02;105676;1259;125160;-76
2023/10/13 02:56:56;;;;;;;;;;;;;;;6.32;80.27;101180.14;105659;1262;72165;-76
2023/10/13 03:00:11;;;;;;;;;;;;;;;6.29;80.36;101179.10;105799;1259;62090;-76
2023/10/13 03:02:27;;;;;;;;;;;;;;;6.27;80.42;101173.98;105818;1261;62131;-76
2023/10/13 03:05:09;;;;;;;;;;;;;;;6.26;80.48;101177.58;105761;1260;74177;-76
2023/10/13 03:07:36;;;;;;;;;;;;;;;6.23;80.49;101181.95;105751;1260;124906;-76
2023/10/13 03:10:10;;;;;;;;;;;;;;;6.20;80.40;101187.92;105785;1259;72683;-76
2023/10/13 03:12:38;;;;;;;;;;;;;;;6.19;80.58;101192.06;105712;1259;125300;-77
2023/10/13 03:17:40;;;;;;;;;;;;;;;6.15;80.46;101191.86;105664;1260;125120;-76
2023/10/13 03:20:11;;;;;;;;;;;;;;;6.14;80.48;101188.13;105807;1259;65635;-76
2023/10/13 03:22:37;;;;;;;;;;;;;;;6.12;80.61;101192.74;105715;1262;72487;-77
2023/10/13 03:25:12;;;;;;;;;;;;;;;6.12;80.68;101196.71;105689;1262;124937;-76
2023/10/13 03:30:15;;;;;;;;;;;;;;;6.10;80.77;101191.60;105703;1259;125349;-79
2023/10/13 03:32:47;;;;;;;;;;;;;;;6.11;80.90;101195.11;106521;1260;66808;-79
2023/10/13 03:35:17;;;;;;;;;;;;;;;6.12;80.91;101193.77;106359;1259;72686;-79
2023/10/13 03:37:43;;;;;;;;;;;;;;;6.13;81.08;101195.04;106386;1262;125301;-79
2023/10/13 03:43:34;;;;;;;;;;;;;;;6.14;81.04;101195.45;106508;1260;125268;-78
2023/10/13 03:45:40;;;;;;;;;;;;;;;6.13;81.10;101192.95;105801;1263;66279;-76
2023/10/13 03:48:09;;;;;;;;;;;;;;;6.12;81.19;101184.55;105700;1262;125559;-76
2023/10/13 03:50:36;;;;;;;;;;;;;;;6.10;81.12;101186.37;105861;1260;60379;-76
2023/10/13 03:53:05;;;;;;;;;;;;;;;6.09;81.23;101183.35;105752;1265;61992;-76
2023/10/13 03:55:35;;;;;;;;;;;;;;;6.10;81.38;101179.23;105600;1260;128017;-77
2023/10/13 03:58:03;;;;;;;;;;;;;;;6.11;81.39;101179.25;105709;1260;65303;-76
2023/10/13 04:00:31;;;;;;;;;;;;;;;6.10;81.42;101176.41;105635;1262;125866;-79
2023/10/13 04:05:39;;;;;;;;;;;;;;;6.07;81.38;101182.38;105738;1260;61974;-79
2023/10/13 04:14:21;;;;;;;;;;;;;;;6.09;81.58;101185.08;105564;1262;125110;-78
2023/10/13 04:32:15;;;;;;;;;;;;;;;6.41;81.94;101165.77;105709;1260;62160;-79
2023/10/13 04:34:51;;;;;;;;;;;;;;;6.45;82.10;101157.73;105693;1263;75473;-79
2023/10/13 04:37:32;;;;;;;;;;;;;;;6.52;82.19;101156.16;105556;1263;124937;-79
2023/10/13 04:40:09;;;;;;;;;;;;;;;6.58;82.14;101158.36;105727;1260;71865;-77
2023/10/13 04:42:39;;;;;;;;;;;;;;;6.62;82.07;101160.64;105580;1258;125053;-77
2023/10/13 04:45:27;;;;;;;;;;;;;;;6.64;82.10;101162.15;105729;1258;62184;-79
2023/10/13 04:48:38;;;;;;;;;;;;;;;6.67;82.08;101169.94;106237;1260;125395;-79
2023/10/13 04:50:45;;;;;;;;;;;;;;;6.69;82.10;101172.98;105786;1257;66760;-78
2023/10/13 05:04:21;;;;;;;;;;;;;;;6.66;81.59;101157.17;105711;1262;64982;-77
2023/10/13 05:48:41;;;;;;;;;;;;;;;7.43;81.62;101143.56;105708;1263;125303;-78
2023/10/13 06:29:42;;;;;;;;;;;;;;;7.87;80.62;101180.21;105721;1262;72784;-79
2023/10/13 06:32:11;;;;;;;;;;;;;;;7.93;80.72;101179.63;105575;1257;125385;-78
2023/10/13 06:34:44;;;;;;;;;;;;;;;8.02;80.82;101178.07;108912;1260;60245;-79
2023/10/13 06:37:30;;;;;;;;;;;;;;;8.15;80.96;101180.86;106454;1262;124956;-79
2023/10/13 06:39:57;;;;;;;;;;;;;;;8.29;81.00;101179.17;105701;1265;66089;-78
2023/10/13 06:42:27;;;;;;;;;;;;;;;8.42;81.00;101176.07;105503;1261;125430;-78
2023/10/13 06:44:54;;;;;;;;;;;;;;;8.55;81.01;101177.11;105787;1262;61974;-78
2023/10/13 06:47:21;;;;;;;;;;;;;;;8.68;80.81;101179.90;105655;1261;62069;-79
2023/10/13 06:49:51;;;;;;;;;;;;;;;8.79;80.83;101178.96;105565;1261;124955;-78
2023/10/13 06:52:17;;;;;;;;;;;;;;;8.94;80.81;101179.16;105745;1259;64667;-78
2023/10/13 06:54:44;;;;;;;;;;;;;;;9.10;80.78;101175.39;105601;1263;125176;-78
2023/10/13 06:57:14;;;;;;;;;;;;;;;9.24;80.70;101175.77;105742;1261;62066;-78
2023/10/13 06:59:41;;;;;;;;;;;;;;;9.41;80.68;101167.24;105681;1259;60801;-78
2023/10/13 07:02:09;;;;;;;;;;;;;;;9.58;80.73;101167.16;105601;1259;124478;-78
2023/10/13 07:04:39;;;;;;;;;;;;;;;9.78;80.79;101163.84;105782;1261;66573;-78
2023/10/13 07:07:10;;;;;;;;;;;;;;;9.97;80.71;101163.78;105602;1264;124367;-78
2023/10/13 07:12:04;;;;;;;;;;;;;;;10.17;80.14;101169.55;105615;1260;124653;-79
2023/10/13 07:14:33;;;;;;;;;;;;;;;10.31;80.13;101168.62;106342;1264;74559;-76
2023/10/13 07:17:00;;;;;;;;;;;;;;;10.47;80.02;101168.10;105717;1264;66309;-77
2023/10/13 07:19:30;;;;;;;;;;;;;;;10.60;79.73;101163.60;105573;1260;124490;-77
2023/10/13 07:22:03;;;;;;;;;;;;;;;10.72;79.43;101164.14;105742;1261;62056;-77
2023/10/13 07:24:33;;;;;;;;;;;;;;;10.85;79.42;101156.64;105770;1260;124450;-77
2023/10/13 07:27:04;;;;;;;;;;;;;;;11.02;79.35;101150.46;105634;1263;75458;-76
2023/10/13 07:29:33;;;;;;;;;;;;;;;11.19;79.31;101146.74;105641;1261;65999;-76
2023/10/13 07:32:03;;;;;;;;;;;;;;;11.34;78.97;101149.11;105689;1262;124722;-76
2023/10/13 07:34:32;;;;;;;;;;;;;;;11.44;78.59;101150.45;105774;1260;62082;-76
2023/10/13 07:36:59;;;;;;;;;;;;;;;11.57;78.42;101145.33;105595;1264;124523;-76
2023/10/13 07:39:33;;;;;;;;;;;;;;;11.69;78.26;101149.02;105755;1263;75667;-77
2023/10/13 07:42:39;;;;;;;;;;;;;;;11.83;77.95;101148.16;107725;1260;124809;-76
2023/10/13 07:44:55;;;;;;;;;;;;;;;12.03;77.87;101148.87;105650;1260;73933;-77
2023/10/13 07:47:24;;;;;;;;;;;;;;;12.18;77.53;101143.63;105821;1258;62221;-77
2023/10/13 07:49:51;;;;;;;;;;;;;;;12.36;77.34;101147.77;105726;1260;124484;-76
2023/10/13 07:54:55;;;;;;;;;;;;;;;12.74;76.89;101138.41;105616;1260;124849;-77
2023/10/13 07:57:31;;;;;;;;;;;;;;;12.91;76.46;101141.09;105753;1260;73265;-76
2023/10/13 08:00:25;;;;;;;;;;;;;;;13.11;76.17;101142.55;105600;1260;125298;-76
2023/10/13 08:06:26;;;;;;;;;;;;;;;13.33;75.11;101128.06;105636;1259;75479;-77
2023/10/13 08:08:37;;;;;;;;;;;;;;;13.38;74.73;101128.88;106703;1258;66295;-76
2023/10/13 08:13:54;;;;;;;;;;;;;;;13.55;74.38;101128.66;105607;1261;125562;-76
2023/10/13 08:16:21;;;;;;;;;;;;;;;13.60;74.14;101130.34;105866;1261;60366;-76
2023/10/13 08:18:49;;;;;;;;;;;;;;;13.64;73.81;101125.84;105762;1261;125345;-75
2023/10/13 08:21:22;;;;;;;;;;;;;;;13.66;73.48;101117.57;105795;1262;66617;-77
2023/10/13 08:31:42;;;;;;;;;;;;;;;13.77;72.87;101101.53;105521;1260;125780;-77
2023/10/13 08:34:15;;;;;;;;;;;;;;;13.83;72.74;101098.13;105738;1261;66282;-77
2023/10/13 08:36:42;;;;;;;;;;;;;;;13.86;72.25;101100.30;105670;1261;124458;-76
2023/10/13 08:42:11;;;;;;;;;;;;;;;13.95;72.15;101101.86;105595;1263;125281;-77
2023/10/13 08:44:45;;;;;;;;;;;;;;;13.99;71.83;101101.58;105833;1261;73462;-77
2023/10/13 08:47:20;;;;;;;;;;;;;;;13.98;71.69;101100.68;105666;1260;64908;-77
2023/10/13 08:49:52;;;;;;;;;;;;;;;14.01;71.70;101093.48;105664;1263;124503;-77
2023/10/13 08:52:46;;;;;;;;;;;;;;;14.05;71.62;101090.02;105737;1260;62149;-77
2023/10/13 08:55:37;;;;;;;;;;;;;;;14.05;71.45;101087.89;105495;1261;124932;-77
2023/10/13 08:58:13;;;;;;;;;;;;;;;14.08;71.22;101081.95;105630;1257;73933;-78
2023/10/13 09:00:56;;;;;;;;;;;;;;;14.05;70.88;101075.91;105516;1261;124736;-77
2023/10/13 09:03:30;;;;;;;;;;;;;;;14.04;70.93;101075.70;105705;1259;72696;-77
2023/10/13 09:06:06;;;;;;;;;;;;;;;14.05;70.82;101074.15;105625;1260;124878;-77
2023/10/13 09:08:35;;;;;;;;;;;;;;;14.10;70.89;101078.45;105712;1261;62185;-76
2023/10/13 09:11:11;;;;;;;;;;;;;;;14.09;70.72;101080.55;105732;1262;73197;-78
2023/10/13 09:13:44;;;;;;;;;;;;;;;14.05;70.60;101081.89;105710;1262;124603;-76
2023/10/13 09:16:16;;;;;;;;;;;;;;;14.06;70.72;101083.33;105736;1264;72745;-76
2023/10/13 09:18:46;;;;;;;;;;;;;;;14.09;70.58;101080.92;106631;1260;200564;-77
2023/10/13 09:24:22;;;;;;;;;;;;;;;14.17;70.56;101075.92;105246;1264;124701;-76
2023/10/13 09:26:53;;;;;;;;;;;;;;;14.23;70.45;101072.81;105185;1266;66291;-78
2023/10/13 09:29:19;;;;;;;;;;;;;;;14.23;70.31;101064.36;105293;1264;72900;-77
2023/10/13 09:31:48;;;;;;;;;;;;;;;14.22;70.20;101059.22;105141;1264;125366;-76
2023/10/13 09:34:23;;;;;;;;;;;;;;;14.19;70.09;101058.48;105369;1264;62132;-76
2023/10/13 09:36:55;;;;;;;;;;;;;;;14.16;70.06;101051.01;105193;1267;125467;-75
2023/10/13 09:39:35;;;;;;;;;;;;;;;14.09;69.92;101044.40;105292;1268;66286;-77
2023/10/13 09:42:03;;;;;;;;;;;;;;;14.07;69.99;101035.89;105713;1269;124751;-76
2023/10/13 09:44:31;;;;;;;;;;;;;;;14.09;70.05;101030.79;105290;1269;62146;-76
2023/10/13 09:47:07;;;;;;;;;;;;;;;14.11;69.91;101025.18;105241;1265;62255;-75
2023/10/13 09:49:44;;;;;;;;;;;;;;;14.13;69.81;101017.98;105170;1266;124628;-76
2023/10/13 09:52:18;;;;;;;;;;;;;;;14.12;69.63;101013.91;105302;1265;64887;-76
2023/10/13 09:55:04;;;;;;;;;;;;;;;14.14;69.62;101012.35;105092;1269;124700;-76
2023/10/13 09:57:34;;;;;;;;;;;;;;;14.18;69.70;101007.27;107245;1264;62162;-77
2023/10/13 10:00:07;;;;;;;;;;;;;;;14.22;69.70;101007.16;106595;1259;124672;-77
2023/10/13 10:02:34;;;;;;;;;;;;;;;14.26;69.70;100997.33;106062;1258;74610;-78
2023/10/13 10:07:58;;;;;;;;;;;;;;;14.38;69.50;100984.95;105651;1260;124405;-75
2023/10/13 10:10:27;;;;;;;;;;;;;;;14.45;69.44;100982.58;105692;1260;61942;-78
2023/10/13 10:12:59;;;;;;;;;;;;;;;14.48;69.41;100981.38;105699;1260;125954;-76
2023/10/13 10:15:33;;;;;;;;;;;;;;;14.53;69.26;100973.85;105832;1261;75504;-77
2023/10/13 10:18:00;;;;;;;;;;;;;;;14.62;69.21;100968.69;105551;1260;125577;-77
2023/10/13 10:20:42;;;;;;;;;;;;;;;14.75;69.24;100957.02;105794;1260;72626;-77
2023/10/13 10:23:21;;;;;;;;;;;;;;;14.91;69.18;100944.27;105795;1259;62080;-77
2023/10/13 10:25:48;;;;;;;;;;;;;;;15.12;69.07;100936.17;105616;1262;125296;-79
2023/10/13 10:28:15;;;;;;;;;;;;;;;15.31;68.93;100931.93;105836;1262;75519;-79
2023/10/13 10:30:43;;;;;;;;;;;;;;;15.48;68.73;100923.23;105758;1260;125088;-78
2023/10/13 10:33:15;;;;;;;;;;;;;;;15.64;68.41;100919.98;105848;1259;71044;-77
2023/10/13 10:35:45;;;;;;;;;;;;;;;15.71;67.92;100918.95;105749;1262;62117;-79
2023/10/13 10:38:23;;;;;;;;;;;;;;;15.74;67.64;100912.27;105658;1261;125020;-78
2023/10/13 10:41:06;;;;;;;;;;;;;;;15.76;67.36;100902.58;105656;1261;74370;-79
2023/10/13 10:43:42;;;;;;;;;;;;;;;15.76;67.31;100891.08;105392;1263;124418;-79
2023/10/13 10:46:10;;;;;;;;;;;;;;;15.82;67.17;100892.16;105672;1260;71689;-79
2023/10/13 10:48:42;;;;;;;;;;;;;;;15.81;66.82;100889.33;108720;1259;124374;-79
2023/10/13 10:51:31;;;;;;;;;;;;;;;15.73;66.62;100884.67;105512;1265;61145;-78
2023/10/13 10:53:57;;;;;;;;;;;;;;;15.67;66.50;100877.36;105426;1260;124796;-79
2023/10/13 10:56:36;;;;;;;;;;;;;;;15.55;66.17;100876.92;105588;1264;66670;-78
2023/10/13 10:59:04;;;;;;;;;;;;;;;15.48;66.41;100869.81;105597;1260;70389;-79
2023/10/13 11:01:38;;;;;;;;;;;;;;;15.48;66.38;100866.10;105504;1261;125001;-79
2023/10/13 11:04:14;;;;;;;;;;;;;;;15.46;66.25;100862.73;107161;1261;62172;-80
2023/10/13 11:06:47;;;;;;;;;;;;;;;15.42;66.20;100860.22;105556;1264;124599;-80
2023/10/13 11:09:31;;;;;;;;;;;;;;;15.45;66.35;100860.59;105683;1261;66297;-79
2023/10/13 11:12:14;;;;;;;;;;;;;;;15.55;66.34;100858.37;105493;1260;124819;-78
2023/10/13 11:14:41;;;;;;;;;;;;;;;15.61;66.40;100853.61;105607;1260;62323;-79
2023/10/13 11:17:18;;;;;;;;;;;;;;;15.68;66.40;100852.95;105604;1264;62805;-78
2023/10/13 11:19:45;;;;;;;;;;;;;;;15.68;66.28;100851.54;105482;1263;124838;-79
2023/10/13 11:22:36;;;;;;;;;;;;;;;15.71;66.25;100847.14;105615;1263;66291;-78
2023/10/13 11:25:09;;;;;;;;;;;;;;;15.76;66.35;100842.23;105532;1264;124560;-80
2023/10/13 11:30:25;;;;;;;;;;;;;;;15.81;66.35;100823.87;105565;1260;124785;-79
2023/10/13 11:33:02;;;;;;;;;;;;;;;15.84;66.32;100828.13;105708;1262;75202;-80
2023/10/13 11:35:48;;;;;;;;;;;;;;;15.84;66.18;100823.16;105797;1264;65148;-79
2023/10/13 11:38:24;;;;;;;;;;;;;;;15.87;66.22;100815.23;105643;1265;71592;-77
2023/10/13 11:41:22;;;;;;;;;;;;;;;15.94;66.44;100812.06;105728;1259;62043;-79
2023/10/13 11:51:44;;;;;;;;;;;;;;;16.21;66.37;100789.66;105789;1261;72432;-78
2023/10/13 11:54:17;;;;;;;;;;;;;;;16.25;66.46;100782.77;106054;1259;124918;-78
2023/10/13 11:56:44;;;;;;;;;;;;;;;16.25;66.38;100773.92;105690;1262;62040;-79
2023/10/13 11:59:17;;;;;;;;;;;;;;;16.28;66.65;100769.66;105713;1258;73465;-79
2023/10/13 12:04:51;;;;;;;;;;;;;;;16.44;66.53;100759.60;105765;1260;72714;-79
2023/10/13 12:07:23;;;;;;;;;;;;;;;16.52;66.64;100752.70;105623;1260;125025;-79
2023/10/13 12:12:23;;;;;;;;;;;;;;;16.73;66.51;100737.64;105614;1259;125059;-78
2023/10/13 12:14:52;;;;;;;;;;;;;;;16.76;66.47;100726.66;105822;1260;65254;-78
2023/10/13 12:17:24;;;;;;;;;;;;;;;16.76;66.31;100719.21;105782;1260;72456;-78
2023/10/13 12:19:51;;;;;;;;;;;;;;;16.71;66.19;100719.03;105724;1260;124361;-78
2023/10/13 12:22:26;;;;;;;;;;;;;;;16.64;66.16;100723.12;105654;1260;62201;-78
2023/10/13 12:24:53;;;;;;;;;;;;;;;16.58;66.30;100728.25;105815;1260;124711;-78
2023/10/13 12:27:20;;;;;;;;;;;;;;;16.54;66.35;100730.20;105724;1258;66523;-78
2023/10/13 12:29:51;;;;;;;;;;;;;;;16.50;66.41;100722.59;105785;1259;72814;-78
2023/10/13 12:32:30;;;;;;;;;;;;;;;16.48;66.70;100707.35;105926;1262;62705;-78
2023/10/13 12:51:54;;;;;;;;;;;;;;;16.61;67.14;100652.07;105732;1262;74551;-81
2023/10/13 12:54:02;;;;;;;;;;;;;;;16.64;67.24;100640.91;105587;1257;125809;-79
2023/10/13 12:56:30;;;;;;;;;;;;;;;16.70;67.28;100633.46;105866;1262;71411;-79
2023/10/13 12:58:57;;;;;;;;;;;;;;;16.76;67.24;100621.40;105957;1261;62179;-79
2023/10/13 13:01:25;;;;;;;;;;;;;;;16.77;67.18;100613.24;105851;1260;124599;-79
2023/10/13 13:03:58;;;;;;;;;;;;;;;16.75;67.27;100609.53;105809;1260;75679;-77
2023/10/13 13:06:25;;;;;;;;;;;;;;;16.72;67.36;100597.84;105738;1259;125215;-78
2023/10/13 13:08:52;;;;;;;;;;;;;;;16.69;67.44;100588.64;105831;1260;71401;-78
2023/10/13 13:11:19;;;;;;;;;;;;;;;16.62;67.44;100582.80;105690;1260;62195;-78
2023/10/13 13:13:48;;;;;;;;;;;;;;;16.57;67.66;100573.61;105773;1260;133581;-77
2023/10/13 13:16:18;;;;;;;;;;;;;;;16.51;67.71;100570.42;105811;1259;74703;-79
2023/10/13 13:18:45;;;;;;;;;;;;;;;16.45;67.92;100563.70;108801;1259;125412;-79
2023/10/13 13:21:22;;;;;;;;;;;;;;;16.42;68.09;100556.64;108907;1259;71464;-77
2023/10/13 13:23:49;;;;;;;;;;;;;;;16.39;68.26;100550.27;107848;1259;62045;-78
2023/10/13 13:26:17;;;;;;;;;;;;;;;16.38;68.45;100549.03;105764;1258;62090;-77
2023/10/13 13:28:44;;;;;;;;;;;;;;;16.38;68.61;100549.39;105767;1259;74577;-78
2023/10/13 13:31:12;;;;;;;;;;;;;;;16.37;68.77;100545.67;105597;1258;125405;-79
2023/10/13 13:33:42;;;;;;;;;;;;;;;16.35;69.01;100546.55;105863;1260;72454;-78
2023/10/13 13:36:15;;;;;;;;;;;;;;;16.29;69.11;100544.27;108745;1259;125297;-81
2023/10/13 13:38:45;;;;;;;;;;;;;;;16.21;69.25;100545.52;106937;1259;62015;-80
2023/10/13 13:41:16;;;;;;;;;;;;;;;16.11;69.54;100543.05;106489;1260;75897;-79
2023/10/13 13:46:17;;;;;;;;;;;;;;;15.93;70.06;100532.44;106494;1263;72738;-79
2023/10/13 13:48:47;;;;;;;;;;;;;;;15.87;70.28;100527.66;105959;1260;124828;-76
2023/10/13 13:51:26;;;;;;;;;;;;;;;15.82;70.60;100518.66;105811;1262;62047;-77
2023/10/13 13:53:53;;;;;;;;;;;;;;;15.79;71.08;100512.27;105651;1262;124860;-76
2023/10/13 13:56:19;;;;;;;;;;;;;;;15.74;71.21;100503.24;105809;1260;64779;-78
2023/10/13 13:58:47;;;;;;;;;;;;;;;15.69;71.48;100496.50;105772;1259;71728;-75
2023/10/13 14:01:21;;;;;;;;;;;;;;;15.67;71.66;100491.91;105653;1259;124468;-78
2023/10/13 14:03:50;;;;;;;;;;;;;;;15.63;71.85;100485.00;105760;1262;62064;-76
2023/10/13 14:06:23;;;;;;;;;;;;;;;15.64;72.20;100480.58;105648;1259;125545;-77
2023/10/13 14:08:56;;;;;;;;;;;;;;;15.65;72.37;100474.73;108970;1258;65030;-78
2023/10/13 14:14:11;;;;;;;;;;;;;;;15.63;72.68;100458.30;105617;1260;125333;-78
2023/10/13 14:16:44;;;;;;;;;;;;;;;15.60;72.90;100447.86;105693;1262;61977;-77
2023/10/13 14:19:11;;;;;;;;;;;;;;;15.55;73.05;100442.20;105972;1262;125119;-78
2023/10/13 14:21:38;;;;;;;;;;;;;;;15.54;73.24;100439.73;105798;1259;64655;-80
2023/10/13 14:24:14;;;;;;;;;;;;;;;15.50;73.44;100430.19;105684;1262;126930;-77
2023/10/13 14:26:42;;;;;;;;;;;;;;;15.47;73.71;100419.58;105725;1262;62095;-77
2023/10/13 14:29:13;;;;;;;;;;;;;;;15.45;73.92;100413.92;105820;1260;62607;-77
2023/10/13 14:31:41;;;;;;;;;;;;;;;15.47;74.13;100405.59;105749;1262;125260;-77
2023/10/13 14:34:08;;;;;;;;;;;;;;;15.48;74.30;100402.77;105759;1257;66264;-82
2023/10/13 14:36:34;;;;;;;;;;;;;;;15.49;74.54;100393.57;106343;1259;125419;-86
2023/10/13 14:39:02;;;;;;;;;;;;;;;15.51;74.74;100384.92;106305;1258;61103;-80
2023/10/13 14:41:29;;;;;;;;;;;;;;;15.53;74.85;100372.87;106448;1257;62041;-80
2023/10/13 14:44:04;;;;;;;;;;;;;;;15.53;75.01;100373.58;106190;1263;125330;-81
2023/10/13 14:46:31;;;;;;;;;;;;;;;15.53;75.21;100373.05;106402;1259;65348;-81
2023/10/13 14:49:02;;;;;;;;;;;;;;;15.53;75.31;100366.86;106366;1260;126414;-81
2023/10/13 14:51:29;;;;;;;;;;;;;;;15.51;75.47;100371.12;106632;1260;62053;-80
2023/10/13 14:53:59;;;;;;;;;;;;;;;15.51;75.75;100359.27;106516;1259;125035;-80
2023/10/13 14:56:28;;;;;;;;;;;;;;;15.49;75.83;100350.61;106501;1259;75254;-80
2023/10/13 14:58:55;;;;;;;;;;;;;;;15.48;76.02;100349.00;106447;1259;66319;-80
2023/10/13 15:01:22;;;;;;;;;;;;;;;15.45;76.20;100344.06;106561;1259;124689;-80
2023/10/13 15:03:55;;;;;;;;;;;;;;;15.43;76.35;100336.27;106620;1262;61990;-79
2023/10/13 15:06:25;;;;;;;;;;;;;;;15.42;76.59;100327.10;106602;1258;125096;-81
2023/10/13 15:08:54;;;;;;;;;;;;;;;15.41;76.88;100319.14;106812;1262;75558;-79
2023/10/13 15:11:21;;;;;;;;;;;;;;;15.37;77.07;100307.13;108695;1260;65978;-79
2023/10/13 15:13:51;;;;;;;;;;;;;;;15.36;77.33;100308.19;106661;1259;125298;-80
2023/10/13 15:16:21;;;;;;;;;;;;;;;15.36;77.56;100300.77;106465;1258;61988;-79
2023/10/13 15:18:51;;;;;;;;;;;;;;;15.38;77.83;100293.15;106368;1260;125478;-80
2023/10/13 15:21:30;;;;;;;;;;;;;;;15.39;77.95;100283.09;106386;1262;73980;-79
2023/10/13 15:24:03;;;;;;;;;;;;;;;15.39;78.28;100281.48;106262;1260;125429;-79
2023/10/13 15:26:30;;;;;;;;;;;;;;;15.36;78.55;100275.47;106336;1259;72766;-79
2023/10/13 15:29:00;;;;;;;;;;;;;;;15.37;78.76;100266.98;106514;1258;62147;-79
2023/10/13 15:34:17;;;;;;;;;;;;;;;15.38;79.27;100264.88;106611;1260;74253;-79
2023/10/13 15:36:44;;;;;;;;;;;;;;;15.39;79.44;100256.90;106359;1260;125520;-80
2023/10/13 15:39:11;;;;;;;;;;;;;;;15.40;79.66;100255.15;106501;1258;72386;-81
2023/10/13 15:41:41;;;;;;;;;;;;;;;15.40;79.83;100251.95;106422;1260;61949;-80
2023/10/13 15:44:11;;;;;;;;;;;;;;;15.41;80.07;100248.77;106409;1260;126152;-80
2023/10/13 15:46:37;;;;;;;;;;;;;;;15.41;80.17;100236.56;106556;1260;73595;-81
2023/10/13 15:49:07;;;;;;;;;;;;;;;15.43;80.36;100240.10;106459;1260;125256;-81
2023/10/13 15:51:36;;;;;;;;;;;;;;;15.44;80.45;100245.59;106481;1262;73072;-80
2023/10/13 15:54:03;;;;;;;;;;;;;;;15.46;80.64;100240.45;106643;1262;124608;-80
2023/10/13 15:56:32;;;;;;;;;;;;;;;15.46;80.70;100247.17;106618;1259;60612;-80
2023/10/13 15:59:00;;;;;;;;;;;;;;;15.48;80.85;100243.45;106457;1261;75559;-80
2023/10/13 16:01:28;;;;;;;;;;;;;;;15.49;81.04;100233.01;106648;1262;126112;-80
2023/10/13 16:03:54;;;;;;;;;;;;;;;15.53;81.03;100212.66;106641;1262;71741;-78